sensor_id;sensor_type;location;lat;lon;timestamp;P1;durP1;ratioP1;P2;durP2;ratioP2
55879;SDS011;41802;51.564;-1.838;2023-07-31T00:01:25;7.03;;;1.30;;
55879;SDS011;41802;51.564;-1.838;2023-07-31T00:03:53;7.75;;;1.42;;
55879;SDS011;41802;51.564;-1.838;2023-07-31T00:06:21;7.82;;;1.75;;
55879;SDS011;41802;51.564;-1.838;2023-07-31T00:08:50;7.05;;;1.50;;
55879;SDS011;41802;51.564;-1.838;2023-07-31T00:11:17;5.88;;;1.52;;
55879;SDS011;41802;51.564;-1.838;2023-07-31T00:13:45;9.40;;;1.50;;
55879;SDS011;41802;51.564;-1.838;2023-07-31T00:16:15;10.93;;;1.45;;
55879;SDS011;41802;51.564;-1.838;2023-07-31T00:18:43;6.63;;;1.30;;
55879;SDS011;41802;51.564;-1.838;2023-07-31T00:21:10;5.47;;;1.42;;
55879;SDS011;41802;51.564;-1.838;2023-07-31T00:23:38;6.22;;;1.50;;
55879;SDS011;41802;51.564;-1.838;2023-07-31T00:26:06;5.90;;;1.67;;
55879;SDS011;41802;51.564;-1.838;2023-07-31T00:28:33;9.63;;;1.55;;
55879;SDS011;41802;51.564;-1.838;2023-07-31T00:31:01;6.78;;;1.83;;
55879;SDS011;41802;51.564;-1.838;2023-07-31T00:33:31;6.85;;;1.50;;
55879;SDS011;41802;51.564;-1.838;2023-07-31T00:35:58;6.13;;;1.55;;
55879;SDS011;41802;51.564;-1.838;2023-07-31T00:38:26;7.47;;;2.03;;
55879;SDS011;41802;51.564;-1.838;2023-07-31T00:40:54;6.40;;;1.88;;
55879;SDS011;41802;51.564;-1.838;2023-07-31T00:43:21;7.93;;;1.75;;
55879;SDS011;41802;51.564;-1.838;2023-07-31T00:45:49;6.65;;;1.83;;
55879;SDS011;41802;51.564;-1.838;2023-07-31T00:48:17;5.90;;;1.40;;
55879;SDS011;41802;51.564;-1.838;2023-07-31T00:50:46;8.43;;;1.50;;
55879;SDS011;41802;51.564;-1.838;2023-07-31T00:53:14;6.57;;;1.88;;
55879;SDS011;41802;51.564;-1.838;2023-07-31T00:55:41;6.70;;;1.75;;
55879;SDS011;41802;51.564;-1.838;2023-07-31T00:58:08;7.30;;;1.38;;
55879;SDS011;41802;51.564;-1.838;2023-07-31T01:00:36;8.60;;;1.70;;
55879;SDS011;41802;51.564;-1.838;2023-07-31T01:03:04;7.00;;;1.83;;
55879;SDS011;41802;51.564;-1.838;2023-07-31T01:05:33;6.97;;;1.63;;
55879;SDS011;41802;51.564;-1.838;2023-07-31T01:08:07;6.07;;;1.77;;
55879;SDS011;41802;51.564;-1.838;2023-07-31T01:10:41;8.20;;;1.80;;
55879;SDS011;41802;51.564;-1.838;2023-07-31T01:13:13;7.93;;;1.88;;
55879;SDS011;41802;51.564;-1.838;2023-07-31T01:15:41;10.63;;;2.13;;
55879;SDS011;41802;51.564;-1.838;2023-07-31T01:18:08;7.15;;;1.90;;
55879;SDS011;41802;51.564;-1.838;2023-07-31T01:20:36;6.05;;;2.08;;
55879;SDS011;41802;51.564;-1.838;2023-07-31T01:26:03;7.32;;;1.20;;
55879;SDS011;41802;51.564;-1.838;2023-07-31T01:28:33;6.83;;;1.83;;
55879;SDS011;41802;51.564;-1.838;2023-07-31T01:31:03;7.60;;;2.10;;
55879;SDS011;41802;51.564;-1.838;2023-07-31T01:33:34;12.05;;;2.13;;
55879;SDS011;41802;51.564;-1.838;2023-07-31T01:36:06;8.07;;;1.85;;
55879;SDS011;41802;51.564;-1.838;2023-07-31T01:38:34;9.35;;;1.95;;
55879;SDS011;41802;51.564;-1.838;2023-07-31T01:41:03;9.20;;;2.30;;
55879;SDS011;41802;51.564;-1.838;2023-07-31T01:43:31;9.02;;;1.95;;
55879;SDS011;41802;51.564;-1.838;2023-07-31T01:45:59;8.05;;;2.03;;
55879;SDS011;41802;51.564;-1.838;2023-07-31T01:48:27;8.20;;;1.90;;
55879;SDS011;41802;51.564;-1.838;2023-07-31T01:50:55;9.82;;;2.10;;
55879;SDS011;41802;51.564;-1.838;2023-07-31T01:53:23;11.77;;;2.27;;
55879;SDS011;41802;51.564;-1.838;2023-07-31T01:55:50;9.80;;;2.00;;
55879;SDS011;41802;51.564;-1.838;2023-07-31T01:58:20;8.60;;;2.53;;
55879;SDS011;41802;51.564;-1.838;2023-07-31T02:00:48;6.35;;;1.50;;
55879;SDS011;41802;51.564;-1.838;2023-07-31T02:03:15;9.63;;;2.33;;
55879;SDS011;41802;51.564;-1.838;2023-07-31T02:05:44;10.87;;;2.17;;
55879;SDS011;41802;51.564;-1.838;2023-07-31T02:08:12;10.45;;;1.98;;
55879;SDS011;41802;51.564;-1.838;2023-07-31T02:10:39;10.35;;;2.00;;
55879;SDS011;41802;51.564;-1.838;2023-07-31T02:13:07;11.10;;;1.95;;
55879;SDS011;41802;51.564;-1.838;2023-07-31T02:15:38;10.32;;;2.15;;
55879;SDS011;41802;51.564;-1.838;2023-07-31T02:18:05;6.93;;;1.93;;
55879;SDS011;41802;51.564;-1.838;2023-07-31T02:20:33;9.02;;;1.98;;
55879;SDS011;41802;51.564;-1.838;2023-07-31T02:23:01;8.93;;;1.73;;
55879;SDS011;41802;51.564;-1.838;2023-07-31T02:25:29;11.85;;;1.90;;
55879;SDS011;41802;51.564;-1.838;2023-07-31T02:27:57;11.63;;;2.45;;
55879;SDS011;41802;51.564;-1.838;2023-07-31T02:30:25;10.07;;;2.30;;
55879;SDS011;41802;51.564;-1.838;2023-07-31T02:32:54;7.75;;;2.10;;
55879;SDS011;41802;51.564;-1.838;2023-07-31T02:35:22;10.38;;;2.95;;
55879;SDS011;41802;51.564;-1.838;2023-07-31T02:37:52;6.65;;;2.13;;
55879;SDS011;41802;51.564;-1.838;2023-07-31T02:40:21;6.97;;;1.95;;
55879;SDS011;41802;51.564;-1.838;2023-07-31T02:42:50;8.47;;;1.80;;
55879;SDS011;41802;51.564;-1.838;2023-07-31T02:45:17;7.05;;;1.73;;
55879;SDS011;41802;51.564;-1.838;2023-07-31T02:47:45;9.63;;;2.22;;
55879;SDS011;41802;51.564;-1.838;2023-07-31T02:50:15;8.07;;;1.50;;
55879;SDS011;41802;51.564;-1.838;2023-07-31T02:52:43;8.98;;;1.77;;
55879;SDS011;41802;51.564;-1.838;2023-07-31T02:55:11;7.27;;;1.30;;
55879;SDS011;41802;51.564;-1.838;2023-07-31T02:57:39;7.40;;;1.63;;
55879;SDS011;41802;51.564;-1.838;2023-07-31T03:00:07;5.88;;;1.30;;
55879;SDS011;41802;51.564;-1.838;2023-07-31T03:02:35;6.43;;;1.67;;
55879;SDS011;41802;51.564;-1.838;2023-07-31T03:05:03;6.15;;;1.48;;
55879;SDS011;41802;51.564;-1.838;2023-07-31T03:07:33;10.47;;;1.50;;
55879;SDS011;41802;51.564;-1.838;2023-07-31T03:10:02;5.93;;;1.45;;
55879;SDS011;41802;51.564;-1.838;2023-07-31T03:12:30;8.75;;;1.77;;
55879;SDS011;41802;51.564;-1.838;2023-07-31T03:14:57;7.15;;;1.73;;
55879;SDS011;41802;51.564;-1.838;2023-07-31T03:17:25;7.72;;;1.70;;
55879;SDS011;41802;51.564;-1.838;2023-07-31T03:19:53;6.87;;;2.00;;
55879;SDS011;41802;51.564;-1.838;2023-07-31T03:22:21;6.47;;;1.40;;
55879;SDS011;41802;51.564;-1.838;2023-07-31T03:24:52;6.85;;;1.40;;
55879;SDS011;41802;51.564;-1.838;2023-07-31T03:27:22;5.38;;;1.00;;
55879;SDS011;41802;51.564;-1.838;2023-07-31T03:29:50;4.53;;;0.90;;
55879;SDS011;41802;51.564;-1.838;2023-07-31T03:32:18;4.50;;;0.80;;
55879;SDS011;41802;51.564;-1.838;2023-07-31T03:34:46;2.70;;;0.60;;
55879;SDS011;41802;51.564;-1.838;2023-07-31T03:37:13;3.28;;;0.70;;
55879;SDS011;41802;51.564;-1.838;2023-07-31T03:39:41;4.53;;;0.68;;
55879;SDS011;41802;51.564;-1.838;2023-07-31T03:42:10;4.30;;;0.40;;
55879;SDS011;41802;51.564;-1.838;2023-07-31T03:44:38;4.00;;;0.77;;
55879;SDS011;41802;51.564;-1.838;2023-07-31T03:47:05;5.68;;;0.70;;
55879;SDS011;41802;51.564;-1.838;2023-07-31T03:49:33;5.75;;;1.20;;
55879;SDS011;41802;51.564;-1.838;2023-07-31T03:52:01;4.95;;;0.80;;
55879;SDS011;41802;51.564;-1.838;2023-07-31T03:54:28;5.03;;;0.90;;
55879;SDS011;41802;51.564;-1.838;2023-07-31T03:56:56;7.13;;;1.37;;
55879;SDS011;41802;51.564;-1.838;2023-07-31T03:59:25;10.85;;;1.73;;
55879;SDS011;41802;51.564;-1.838;2023-07-31T04:01:53;7.32;;;1.58;;
55879;SDS011;41802;51.564;-1.838;2023-07-31T04:04:20;8.45;;;2.47;;
55879;SDS011;41802;51.564;-1.838;2023-07-31T04:06:48;7.75;;;1.42;;
55879;SDS011;41802;51.564;-1.838;2023-07-31T04:09:17;8.43;;;1.80;;
55879;SDS011;41802;51.564;-1.838;2023-07-31T04:11:44;10.30;;;2.05;;
55879;SDS011;41802;51.564;-1.838;2023-07-31T04:14:12;10.65;;;1.73;;
55879;SDS011;41802;51.564;-1.838;2023-07-31T04:16:41;11.27;;;2.28;;
55879;SDS011;41802;51.564;-1.838;2023-07-31T04:19:15;12.05;;;1.98;;
55879;SDS011;41802;51.564;-1.838;2023-07-31T04:21:43;8.10;;;1.33;;
55879;SDS011;41802;51.564;-1.838;2023-07-31T04:24:11;8.52;;;1.50;;
55879;SDS011;41802;51.564;-1.838;2023-07-31T04:26:39;12.02;;;1.70;;
55879;SDS011;41802;51.564;-1.838;2023-07-31T04:29:07;6.93;;;1.88;;
55879;SDS011;41802;51.564;-1.838;2023-07-31T04:31:35;10.20;;;1.83;;
55879;SDS011;41802;51.564;-1.838;2023-07-31T04:34:07;7.63;;;1.73;;
55879;SDS011;41802;51.564;-1.838;2023-07-31T04:36:34;9.00;;;2.03;;
55879;SDS011;41802;51.564;-1.838;2023-07-31T04:39:03;6.53;;;1.65;;
55879;SDS011;41802;51.564;-1.838;2023-07-31T04:41:31;8.73;;;1.80;;
55879;SDS011;41802;51.564;-1.838;2023-07-31T04:43:58;8.90;;;2.35;;
55879;SDS011;41802;51.564;-1.838;2023-07-31T04:46:26;7.63;;;1.63;;
55879;SDS011;41802;51.564;-1.838;2023-07-31T04:48:54;9.88;;;2.42;;
55879;SDS011;41802;51.564;-1.838;2023-07-31T04:51:23;9.60;;;2.08;;
55879;SDS011;41802;51.564;-1.838;2023-07-31T04:53:51;11.10;;;2.10;;
55879;SDS011;41802;51.564;-1.838;2023-07-31T04:56:22;8.15;;;1.55;;
55879;SDS011;41802;51.564;-1.838;2023-07-31T04:58:50;6.83;;;1.70;;
55879;SDS011;41802;51.564;-1.838;2023-07-31T05:01:17;9.55;;;2.25;;
55879;SDS011;41802;51.564;-1.838;2023-07-31T05:03:45;8.45;;;2.40;;
55879;SDS011;41802;51.564;-1.838;2023-07-31T05:06:13;8.32;;;2.05;;
55879;SDS011;41802;51.564;-1.838;2023-07-31T05:08:43;11.70;;;2.65;;
55879;SDS011;41802;51.564;-1.838;2023-07-31T05:11:11;7.03;;;2.07;;
55879;SDS011;41802;51.564;-1.838;2023-07-31T05:13:40;8.07;;;2.00;;
55879;SDS011;41802;51.564;-1.838;2023-07-31T05:16:09;10.35;;;2.78;;
55879;SDS011;41802;51.564;-1.838;2023-07-31T05:18:36;11.20;;;3.05;;
55879;SDS011;41802;51.564;-1.838;2023-07-31T05:21:04;7.38;;;2.00;;
55879;SDS011;41802;51.564;-1.838;2023-07-31T05:23:32;10.33;;;2.17;;
55879;SDS011;41802;51.564;-1.838;2023-07-31T05:26:04;9.73;;;2.80;;
55879;SDS011;41802;51.564;-1.838;2023-07-31T05:28:31;12.68;;;2.92;;
55879;SDS011;41802;51.564;-1.838;2023-07-31T05:30:59;7.80;;;2.08;;
55879;SDS011;41802;51.564;-1.838;2023-07-31T05:33:27;9.75;;;2.13;;
55879;SDS011;41802;51.564;-1.838;2023-07-31T05:35:55;10.60;;;2.87;;
55879;SDS011;41802;51.564;-1.838;2023-07-31T05:38:22;8.95;;;2.30;;
55879;SDS011;41802;51.564;-1.838;2023-07-31T05:40:50;6.30;;;1.58;;
55879;SDS011;41802;51.564;-1.838;2023-07-31T05:43:19;7.22;;;2.45;;
55879;SDS011;41802;51.564;-1.838;2023-07-31T05:45:47;9.77;;;2.33;;
55879;SDS011;41802;51.564;-1.838;2023-07-31T05:48:15;7.77;;;2.10;;
55879;SDS011;41802;51.564;-1.838;2023-07-31T05:50:44;11.95;;;2.53;;
55879;SDS011;41802;51.564;-1.838;2023-07-31T05:53:13;8.95;;;2.55;;
55879;SDS011;41802;51.564;-1.838;2023-07-31T05:55:41;11.35;;;2.35;;
55879;SDS011;41802;51.564;-1.838;2023-07-31T05:58:08;9.23;;;2.50;;
55879;SDS011;41802;51.564;-1.838;2023-07-31T06:00:37;8.87;;;2.20;;
55879;SDS011;41802;51.564;-1.838;2023-07-31T06:03:05;9.27;;;2.40;;
55879;SDS011;41802;51.564;-1.838;2023-07-31T06:05:33;9.75;;;2.83;;
55879;SDS011;41802;51.564;-1.838;2023-07-31T06:08:01;10.07;;;2.83;;
55879;SDS011;41802;51.564;-1.838;2023-07-31T06:10:29;9.82;;;2.60;;
55879;SDS011;41802;51.564;-1.838;2023-07-31T06:12:56;10.17;;;2.63;;
55879;SDS011;41802;51.564;-1.838;2023-07-31T06:15:25;11.00;;;2.65;;
55879;SDS011;41802;51.564;-1.838;2023-07-31T06:17:54;9.25;;;2.80;;
55879;SDS011;41802;51.564;-1.838;2023-07-31T06:20:22;10.52;;;2.80;;
55879;SDS011;41802;51.564;-1.838;2023-07-31T06:22:49;7.70;;;2.40;;
55879;SDS011;41802;51.564;-1.838;2023-07-31T06:25:17;9.97;;;2.70;;
55879;SDS011;41802;51.564;-1.838;2023-07-31T06:27:45;8.70;;;3.08;;
55879;SDS011;41802;51.564;-1.838;2023-07-31T06:30:12;13.60;;;3.78;;
55879;SDS011;41802;51.564;-1.838;2023-07-31T06:32:40;9.93;;;3.22;;
55879;SDS011;41802;51.564;-1.838;2023-07-31T06:35:09;8.70;;;2.88;;
55879;SDS011;41802;51.564;-1.838;2023-07-31T06:37:37;9.93;;;3.07;;
55879;SDS011;41802;51.564;-1.838;2023-07-31T06:40:07;13.00;;;4.05;;
55879;SDS011;41802;51.564;-1.838;2023-07-31T06:42:35;7.82;;;3.40;;
55879;SDS011;41802;51.564;-1.838;2023-07-31T06:45:03;11.35;;;3.17;;
55879;SDS011;41802;51.564;-1.838;2023-07-31T06:47:31;11.15;;;3.03;;
55879;SDS011;41802;51.564;-1.838;2023-07-31T06:49:58;8.43;;;2.37;;
55879;SDS011;41802;51.564;-1.838;2023-07-31T06:52:27;10.07;;;3.08;;
55879;SDS011;41802;51.564;-1.838;2023-07-31T06:55:02;8.57;;;2.95;;
55879;SDS011;41802;51.564;-1.838;2023-07-31T06:57:31;9.13;;;2.60;;
55879;SDS011;41802;51.564;-1.838;2023-07-31T06:59:59;7.13;;;2.60;;
55879;SDS011;41802;51.564;-1.838;2023-07-31T07:02:27;11.80;;;2.70;;
55879;SDS011;41802;51.564;-1.838;2023-07-31T07:04:54;10.82;;;2.53;;
55879;SDS011;41802;51.564;-1.838;2023-07-31T07:07:23;9.32;;;2.63;;
55879;SDS011;41802;51.564;-1.838;2023-07-31T07:09:52;9.85;;;3.08;;
55879;SDS011;41802;51.564;-1.838;2023-07-31T07:12:37;7.32;;;2.30;;
55879;SDS011;41802;51.564;-1.838;2023-07-31T07:15:06;9.50;;;2.60;;
55879;SDS011;41802;51.564;-1.838;2023-07-31T07:17:37;8.30;;;2.10;;
55879;SDS011;41802;51.564;-1.838;2023-07-31T07:20:05;9.13;;;2.63;;
55879;SDS011;41802;51.564;-1.838;2023-07-31T07:22:33;9.55;;;2.60;;
55879;SDS011;41802;51.564;-1.838;2023-07-31T07:25:03;12.13;;;2.42;;
55879;SDS011;41802;51.564;-1.838;2023-07-31T07:27:31;9.97;;;2.27;;
55879;SDS011;41802;51.564;-1.838;2023-07-31T07:29:59;9.65;;;2.17;;
55879;SDS011;41802;51.564;-1.838;2023-07-31T07:32:27;8.57;;;2.20;;
55879;SDS011;41802;51.564;-1.838;2023-07-31T07:34:55;9.02;;;1.73;;
55879;SDS011;41802;51.564;-1.838;2023-07-31T07:37:23;9.23;;;2.30;;
55879;SDS011;41802;51.564;-1.838;2023-07-31T07:39:52;8.13;;;2.07;;
55879;SDS011;41802;51.564;-1.838;2023-07-31T07:42:21;10.10;;;2.70;;
55879;SDS011;41802;51.564;-1.838;2023-07-31T07:44:49;10.23;;;2.55;;
55879;SDS011;41802;51.564;-1.838;2023-07-31T07:47:17;9.73;;;2.15;;
55879;SDS011;41802;51.564;-1.838;2023-07-31T07:49:44;9.20;;;2.22;;
55879;SDS011;41802;51.564;-1.838;2023-07-31T07:52:18;9.20;;;1.97;;
55879;SDS011;41802;51.564;-1.838;2023-07-31T07:54:46;8.32;;;1.88;;
55879;SDS011;41802;51.564;-1.838;2023-07-31T07:57:14;11.32;;;2.08;;
55879;SDS011;41802;51.564;-1.838;2023-07-31T07:59:44;7.63;;;1.77;;
55879;SDS011;41802;51.564;-1.838;2023-07-31T08:02:13;7.95;;;1.95;;
55879;SDS011;41802;51.564;-1.838;2023-07-31T08:04:41;7.17;;;1.80;;
55879;SDS011;41802;51.564;-1.838;2023-07-31T08:07:10;6.95;;;1.75;;
55879;SDS011;41802;51.564;-1.838;2023-07-31T08:09:38;7.45;;;1.85;;
55879;SDS011;41802;51.564;-1.838;2023-07-31T08:12:06;8.63;;;1.73;;
55879;SDS011;41802;51.564;-1.838;2023-07-31T08:14:34;8.07;;;1.70;;
55879;SDS011;41802;51.564;-1.838;2023-07-31T08:17:03;6.60;;;1.67;;
55879;SDS011;41802;51.564;-1.838;2023-07-31T08:19:31;9.18;;;2.40;;
55879;SDS011;41802;51.564;-1.838;2023-07-31T08:21:59;10.13;;;2.33;;
55879;SDS011;41802;51.564;-1.838;2023-07-31T08:24:29;8.40;;;2.30;;
55879;SDS011;41802;51.564;-1.838;2023-07-31T08:26:56;7.72;;;1.70;;
55879;SDS011;41802;51.564;-1.838;2023-07-31T08:29:24;6.17;;;1.60;;
55879;SDS011;41802;51.564;-1.838;2023-07-31T08:31:52;6.22;;;1.25;;
55879;SDS011;41802;51.564;-1.838;2023-07-31T08:34:21;8.90;;;1.83;;
55879;SDS011;41802;51.564;-1.838;2023-07-31T08:36:49;7.95;;;1.90;;
55879;SDS011;41802;51.564;-1.838;2023-07-31T08:39:16;6.75;;;1.60;;
55879;SDS011;41802;51.564;-1.838;2023-07-31T08:41:44;7.77;;;1.47;;
55879;SDS011;41802;51.564;-1.838;2023-07-31T08:44:12;5.88;;;1.60;;
55879;SDS011;41802;51.564;-1.838;2023-07-31T08:46:41;8.05;;;2.10;;
55879;SDS011;41802;51.564;-1.838;2023-07-31T08:49:10;5.93;;;1.30;;
55879;SDS011;41802;51.564;-1.838;2023-07-31T08:51:39;7.72;;;1.60;;
55879;SDS011;41802;51.564;-1.838;2023-07-31T08:54:07;6.37;;;1.77;;
55879;SDS011;41802;51.564;-1.838;2023-07-31T08:56:35;10.63;;;1.92;;
55879;SDS011;41802;51.564;-1.838;2023-07-31T08:59:04;6.53;;;1.65;;
55879;SDS011;41802;51.564;-1.838;2023-07-31T09:01:33;6.38;;;1.73;;
55879;SDS011;41802;51.564;-1.838;2023-07-31T09:04:03;17.92;;;1.77;;
55879;SDS011;41802;51.564;-1.838;2023-07-31T09:06:31;6.30;;;1.60;;
55879;SDS011;41802;51.564;-1.838;2023-07-31T09:09:01;6.55;;;1.95;;
55879;SDS011;41802;51.564;-1.838;2023-07-31T09:11:29;6.68;;;1.50;;
55879;SDS011;41802;51.564;-1.838;2023-07-31T09:13:57;8.35;;;1.95;;
55879;SDS011;41802;51.564;-1.838;2023-07-31T09:16:28;8.18;;;1.63;;
55879;SDS011;41802;51.564;-1.838;2023-07-31T09:18:58;6.97;;;1.80;;
55879;SDS011;41802;51.564;-1.838;2023-07-31T09:21:28;5.30;;;1.40;;
55879;SDS011;41802;51.564;-1.838;2023-07-31T09:23:57;6.20;;;1.50;;
55879;SDS011;41802;51.564;-1.838;2023-07-31T09:26:31;7.53;;;1.92;;
55879;SDS011;41802;51.564;-1.838;2023-07-31T09:28:59;6.10;;;1.58;;
55879;SDS011;41802;51.564;-1.838;2023-07-31T09:31:33;7.03;;;1.70;;
55879;SDS011;41802;51.564;-1.838;2023-07-31T09:34:01;6.63;;;1.77;;
55879;SDS011;41802;51.564;-1.838;2023-07-31T09:36:29;8.82;;;1.65;;
55879;SDS011;41802;51.564;-1.838;2023-07-31T09:39:01;5.90;;;1.50;;
55879;SDS011;41802;51.564;-1.838;2023-07-31T09:41:28;7.10;;;1.90;;
55879;SDS011;41802;51.564;-1.838;2023-07-31T09:43:58;9.20;;;1.40;;
55879;SDS011;41802;51.564;-1.838;2023-07-31T09:46:26;6.15;;;1.40;;
55879;SDS011;41802;51.564;-1.838;2023-07-31T09:49:03;8.95;;;1.90;;
55879;SDS011;41802;51.564;-1.838;2023-07-31T09:51:33;6.30;;;2.00;;
55879;SDS011;41802;51.564;-1.838;2023-07-31T09:54:10;6.75;;;1.80;;
55879;SDS011;41802;51.564;-1.838;2023-07-31T09:56:41;9.23;;;2.07;;
55879;SDS011;41802;51.564;-1.838;2023-07-31T09:59:12;7.07;;;2.05;;
55879;SDS011;41802;51.564;-1.838;2023-07-31T10:01:40;9.70;;;2.30;;
55879;SDS011;41802;51.564;-1.838;2023-07-31T10:04:09;8.90;;;2.00;;
55879;SDS011;41802;51.564;-1.838;2023-07-31T10:06:37;9.73;;;2.15;;
55879;SDS011;41802;51.564;-1.838;2023-07-31T10:09:07;8.77;;;1.80;;
55879;SDS011;41802;51.564;-1.838;2023-07-31T10:11:36;8.13;;;2.47;;
55879;SDS011;41802;51.564;-1.838;2023-07-31T10:14:04;9.52;;;2.45;;
55879;SDS011;41802;51.564;-1.838;2023-07-31T10:16:38;8.93;;;2.20;;
55879;SDS011;41802;51.564;-1.838;2023-07-31T10:19:08;15.07;;;2.88;;
55879;SDS011;41802;51.564;-1.838;2023-07-31T10:21:39;12.47;;;2.93;;
55879;SDS011;41802;51.564;-1.838;2023-07-31T10:24:08;12.15;;;2.30;;
55879;SDS011;41802;51.564;-1.838;2023-07-31T10:26:36;9.75;;;2.10;;
55879;SDS011;41802;51.564;-1.838;2023-07-31T10:29:05;13.80;;;2.95;;
55879;SDS011;41802;51.564;-1.838;2023-07-31T10:31:34;11.63;;;3.15;;
55879;SDS011;41802;51.564;-1.838;2023-07-31T10:34:03;12.73;;;3.47;;
55879;SDS011;41802;51.564;-1.838;2023-07-31T10:36:32;16.00;;;3.70;;
55879;SDS011;41802;51.564;-1.838;2023-07-31T10:39:02;17.10;;;3.72;;
55879;SDS011;41802;51.564;-1.838;2023-07-31T10:41:31;15.95;;;3.00;;
55879;SDS011;41802;51.564;-1.838;2023-07-31T10:43:59;14.45;;;3.70;;
55879;SDS011;41802;51.564;-1.838;2023-07-31T10:46:27;14.93;;;3.53;;
55879;SDS011;41802;51.564;-1.838;2023-07-31T10:48:59;22.75;;;4.07;;
55879;SDS011;41802;51.564;-1.838;2023-07-31T10:51:35;13.65;;;3.25;;
55879;SDS011;41802;51.564;-1.838;2023-07-31T10:54:12;12.18;;;3.22;;
55879;SDS011;41802;51.564;-1.838;2023-07-31T10:56:44;13.68;;;4.32;;
55879;SDS011;41802;51.564;-1.838;2023-07-31T10:59:12;11.33;;;3.30;;
55879;SDS011;41802;51.564;-1.838;2023-07-31T11:01:50;14.68;;;3.90;;
55879;SDS011;41802;51.564;-1.838;2023-07-31T11:04:21;10.68;;;2.63;;
55879;SDS011;41802;51.564;-1.838;2023-07-31T11:06:56;15.00;;;3.45;;
55879;SDS011;41802;51.564;-1.838;2023-07-31T11:09:27;12.90;;;3.80;;
55879;SDS011;41802;51.564;-1.838;2023-07-31T11:12:13;16.87;;;3.77;;
55879;SDS011;41802;51.564;-1.838;2023-07-31T11:14:44;15.20;;;3.75;;
55879;SDS011;41802;51.564;-1.838;2023-07-31T11:17:11;13.25;;;3.65;;
55879;SDS011;41802;51.564;-1.838;2023-07-31T11:19:39;17.35;;;3.95;;
55879;SDS011;41802;51.564;-1.838;2023-07-31T11:22:10;24.33;;;5.07;;
55879;SDS011;41802;51.564;-1.838;2023-07-31T11:24:38;16.77;;;3.67;;
55879;SDS011;41802;51.564;-1.838;2023-07-31T11:27:07;13.55;;;4.22;;
55879;SDS011;41802;51.564;-1.838;2023-07-31T11:29:37;22.10;;;3.88;;
55879;SDS011;41802;51.564;-1.838;2023-07-31T11:32:15;16.08;;;4.13;;
55879;SDS011;41802;51.564;-1.838;2023-07-31T11:34:50;14.18;;;4.03;;
55879;SDS011;41802;51.564;-1.838;2023-07-31T11:37:23;19.17;;;3.30;;
55879;SDS011;41802;51.564;-1.838;2023-07-31T11:40:00;15.18;;;3.38;;
55879;SDS011;41802;51.564;-1.838;2023-07-31T11:42:28;14.05;;;3.97;;
55879;SDS011;41802;51.564;-1.838;2023-07-31T11:44:56;15.40;;;3.75;;
55879;SDS011;41802;51.564;-1.838;2023-07-31T11:47:25;18.15;;;4.38;;
55879;SDS011;41802;51.564;-1.838;2023-07-31T11:49:53;12.30;;;3.83;;
55879;SDS011;41802;51.564;-1.838;2023-07-31T11:52:21;19.23;;;4.10;;
55879;SDS011;41802;51.564;-1.838;2023-07-31T11:54:55;13.07;;;3.67;;
55879;SDS011;41802;51.564;-1.838;2023-07-31T11:57:23;17.58;;;3.65;;
55879;SDS011;41802;51.564;-1.838;2023-07-31T11:59:51;14.13;;;3.58;;
55879;SDS011;41802;51.564;-1.838;2023-07-31T12:02:19;15.70;;;4.07;;
55879;SDS011;41802;51.564;-1.838;2023-07-31T12:04:47;15.23;;;3.85;;
55879;SDS011;41802;51.564;-1.838;2023-07-31T12:07:15;17.50;;;3.92;;
55879;SDS011;41802;51.564;-1.838;2023-07-31T12:09:50;12.90;;;3.85;;
55879;SDS011;41802;51.564;-1.838;2023-07-31T12:12:20;15.13;;;3.97;;
55879;SDS011;41802;51.564;-1.838;2023-07-31T12:14:48;14.87;;;3.80;;
55879;SDS011;41802;51.564;-1.838;2023-07-31T12:17:19;16.90;;;4.35;;
55879;SDS011;41802;51.564;-1.838;2023-07-31T12:19:48;15.18;;;3.47;;
55879;SDS011;41802;51.564;-1.838;2023-07-31T12:22:16;13.48;;;4.65;;
55879;SDS011;41802;51.564;-1.838;2023-07-31T12:24:44;13.43;;;3.67;;
55879;SDS011;41802;51.564;-1.838;2023-07-31T12:27:12;12.73;;;3.27;;
55879;SDS011;41802;51.564;-1.838;2023-07-31T12:29:44;15.75;;;4.40;;
55879;SDS011;41802;51.564;-1.838;2023-07-31T12:32:19;14.82;;;3.92;;
55879;SDS011;41802;51.564;-1.838;2023-07-31T12:34:47;16.65;;;4.25;;
55879;SDS011;41802;51.564;-1.838;2023-07-31T12:37:15;18.10;;;3.78;;
55879;SDS011;41802;51.564;-1.838;2023-07-31T12:39:44;19.60;;;4.13;;
55879;SDS011;41802;51.564;-1.838;2023-07-31T12:42:12;15.48;;;3.70;;
55879;SDS011;41802;51.564;-1.838;2023-07-31T12:44:40;15.77;;;4.28;;
55879;SDS011;41802;51.564;-1.838;2023-07-31T12:47:10;11.80;;;3.45;;
55879;SDS011;41802;51.564;-1.838;2023-07-31T12:49:37;17.52;;;4.40;;
55879;SDS011;41802;51.564;-1.838;2023-07-31T12:52:05;20.47;;;4.13;;
55879;SDS011;41802;51.564;-1.838;2023-07-31T12:54:33;12.00;;;3.53;;
55879;SDS011;41802;51.564;-1.838;2023-07-31T12:57:02;18.90;;;5.32;;
55879;SDS011;41802;51.564;-1.838;2023-07-31T12:59:30;15.10;;;4.10;;
55879;SDS011;41802;51.564;-1.838;2023-07-31T13:01:58;16.08;;;4.43;;
55879;SDS011;41802;51.564;-1.838;2023-07-31T13:04:28;15.90;;;4.17;;
55879;SDS011;41802;51.564;-1.838;2023-07-31T13:06:56;16.73;;;4.07;;
55879;SDS011;41802;51.564;-1.838;2023-07-31T13:09:23;16.13;;;4.55;;
55879;SDS011;41802;51.564;-1.838;2023-07-31T13:11:51;17.70;;;4.70;;
55879;SDS011;41802;51.564;-1.838;2023-07-31T13:14:20;15.70;;;4.60;;
55879;SDS011;41802;51.564;-1.838;2023-07-31T13:16:48;11.87;;;3.80;;
55879;SDS011;41802;51.564;-1.838;2023-07-31T13:19:15;16.30;;;4.65;;
55879;SDS011;41802;51.564;-1.838;2023-07-31T13:21:44;14.25;;;4.15;;
55879;SDS011;41802;51.564;-1.838;2023-07-31T13:24:12;15.77;;;4.20;;
55879;SDS011;41802;51.564;-1.838;2023-07-31T13:26:40;19.85;;;5.35;;
55879;SDS011;41802;51.564;-1.838;2023-07-31T13:29:07;17.00;;;4.53;;
55879;SDS011;41802;51.564;-1.838;2023-07-31T13:31:35;13.32;;;4.43;;
55879;SDS011;41802;51.564;-1.838;2023-07-31T13:34:03;14.60;;;3.75;;
55879;SDS011;41802;51.564;-1.838;2023-07-31T13:36:32;21.88;;;4.68;;
55879;SDS011;41802;51.564;-1.838;2023-07-31T13:39:02;15.77;;;4.72;;
55879;SDS011;41802;51.564;-1.838;2023-07-31T13:41:29;18.80;;;4.20;;
55879;SDS011;41802;51.564;-1.838;2023-07-31T13:43:57;17.48;;;4.13;;
55879;SDS011;41802;51.564;-1.838;2023-07-31T13:46:25;14.68;;;3.97;;
55879;SDS011;41802;51.564;-1.838;2023-07-31T13:48:53;17.23;;;4.68;;
55879;SDS011;41802;51.564;-1.838;2023-07-31T13:51:22;22.00;;;5.43;;
55879;SDS011;41802;51.564;-1.838;2023-07-31T13:53:50;16.67;;;4.77;;
55879;SDS011;41802;51.564;-1.838;2023-07-31T13:56:19;22.85;;;5.25;;
55879;SDS011;41802;51.564;-1.838;2023-07-31T13:58:47;19.92;;;5.50;;
55879;SDS011;41802;51.564;-1.838;2023-07-31T14:01:14;13.10;;;3.80;;
55879;SDS011;41802;51.564;-1.838;2023-07-31T14:03:43;14.45;;;4.18;;
55879;SDS011;41802;51.564;-1.838;2023-07-31T14:06:12;13.63;;;4.03;;
55879;SDS011;41802;51.564;-1.838;2023-07-31T14:08:40;12.00;;;3.35;;
55879;SDS011;41802;51.564;-1.838;2023-07-31T14:11:08;13.05;;;4.07;;
55879;SDS011;41802;51.564;-1.838;2023-07-31T14:13:37;12.18;;;4.00;;
55879;SDS011;41802;51.564;-1.838;2023-07-31T14:16:05;13.02;;;3.38;;
55879;SDS011;41802;51.564;-1.838;2023-07-31T14:18:34;14.23;;;4.53;;
55879;SDS011;41802;51.564;-1.838;2023-07-31T14:21:03;13.60;;;4.45;;
55879;SDS011;41802;51.564;-1.838;2023-07-31T14:23:30;14.35;;;4.10;;
55879;SDS011;41802;51.564;-1.838;2023-07-31T14:25:58;14.70;;;3.83;;
55879;SDS011;41802;51.564;-1.838;2023-07-31T14:28:26;15.13;;;4.32;;
55879;SDS011;41802;51.564;-1.838;2023-07-31T14:30:55;14.03;;;3.60;;
55879;SDS011;41802;51.564;-1.838;2023-07-31T14:33:23;10.63;;;4.10;;
55879;SDS011;41802;51.564;-1.838;2023-07-31T14:35:50;13.77;;;3.85;;
55879;SDS011;41802;51.564;-1.838;2023-07-31T14:38:18;12.80;;;3.90;;
55879;SDS011;41802;51.564;-1.838;2023-07-31T14:40:46;11.40;;;3.92;;